Low temp

Not for real navigation. The accuracy of this data is not assured See disclaimer for more information



ICAO NAME COUNTRY WIND Kt GUST Kt VIS m TEMP/DEW C BARO METAR
CWEU Eureka, N. W. T. Canada 3 0 6400 -22/-24 29.73 CWEU 150800Z 07003KT 4SM BR FEW005 SCT130 M22/M24 A2973 RMK SF2AC2 SLP070
CXRB 13 0 9999 -17/-19 29.92 CXRB 150800Z AUTO 03013KT M17/M19 RMK AO1 SOG 05 4000 SLP039 T11721186
CYRB Resolute, N. W. T. Canada 17 0 24000 -17/-20 29.65 CYRB 150800Z 03017KT 15SM IC SCT020 M17/M20 A2965 RMK SC4 SLP050
CWPX Cape Peel West, N. W. T. Canada 11 0 9999 -17/-19 29.85 CWPX 150800Z AUTO 01011KT ////SM //// BKN003 M17/M19 A2985
KLAR LARAMIE REGIONAL AIRPORT WY United States 6 0 9999 -17/-18 30.26 KLAR 150753Z AUTO 26006KT 10SM CAVOK M17/M18 A3026 RMK AO2 SLP326 I1000 T11671178

Show more